Martinsville, Virginia
Current Conditions -  °F | °C
As of 2:55 PM on Thursday 30 Oct 2014 (Local Time) from KMTV Reporting Station
Clear Clear  
Wind Chill: 18°   Ceiling: Unl
Heat Index: 18°   Visibility: 10mi
Dew Point:   Wind: 0mph
Humidity: 34%   Direction: NA
Pressure: 30.02"   Gusts: NA
Location:  36.69°N, 79.87°W
Report Text: KMTV 301855Z AUTO 00000KT 10SM CLR 18/02 A3002 RMK AO2 T01760017
Loading
Personal Weather Stations






























Interactive Weather Map New forecast layout! Learn more

10-Day Weather Forecast

Advertisements
Track Severe Weather on mobile